createdAt,value
2024-04-19T01:44:20.426Z,1002.79
2024-04-19T01:44:51.256Z,1002.79
2024-04-19T01:45:21.365Z,1002.79
2024-04-19T01:45:51.249Z,1002.76
2024-04-19T01:46:21.253Z,1002.77
2024-04-19T01:46:51.237Z,1002.77
2024-04-19T01:47:21.311Z,1002.75
2024-04-19T01:47:51.327Z,1002.75
2024-04-19T01:48:21.267Z,1002.73
2024-04-19T01:48:51.250Z,1002.74
2024-04-19T01:49:21.342Z,1002.73
2024-04-19T01:49:51.311Z,1002.73
2024-04-19T01:50:21.236Z,1002.68
2024-04-19T01:50:51.196Z,1002.66
2024-04-19T01:51:21.207Z,1002.69
2024-04-19T01:51:51.208Z,1002.68
2024-04-19T01:52:21.192Z,1002.68
2024-04-19T01:52:51.165Z,1002.64
2024-04-19T01:53:21.202Z,1002.62
2024-04-19T01:53:51.158Z,1002.60
2024-04-19T01:54:21.235Z,1002.63
2024-04-19T01:54:51.167Z,1002.62
2024-04-19T01:55:21.203Z,1002.61
2024-04-19T01:55:51.196Z,1002.61
2024-04-19T01:56:21.133Z,1002.61
2024-04-19T01:56:51.122Z,1002.61
2024-04-19T01:57:21.160Z,1002.59
2024-04-19T01:57:51.133Z,1002.57
2024-04-19T01:58:21.117Z,1002.59
2024-04-19T01:58:51.104Z,1002.61
2024-04-19T01:59:21.154Z,1002.57
2024-04-19T01:59:51.094Z,1002.57
2024-04-19T02:00:21.218Z,1002.57
2024-04-19T06:11:11.430Z,996.87
2024-04-19T06:11:41.613Z,996.87
2024-04-19T06:12:12.306Z,996.83
2024-04-19T06:12:42.428Z,996.83
2024-04-19T06:13:11.558Z,996.84
2024-04-19T06:13:41.730Z,996.86
2024-04-19T06:14:11.613Z,996.84
2024-04-19T06:14:41.628Z,996.80
2024-04-19T06:15:11.547Z,996.81
2024-04-19T06:15:41.604Z,996.78
2024-04-19T06:16:11.717Z,996.74
2024-04-19T06:16:41.560Z,996.75
2024-04-19T06:17:11.504Z,996.75
2024-04-19T06:17:41.592Z,996.78
2024-04-19T06:18:11.616Z,996.72
2024-04-19T06:18:41.575Z,996.77
2024-04-19T06:19:11.578Z,996.80
2024-04-19T06:19:41.482Z,996.75
2024-04-19T06:20:11.471Z,996.73
2024-04-19T06:20:41.481Z,996.70
2024-04-19T06:21:11.494Z,996.63
2024-04-19T06:21:41.540Z,996.65
2024-04-19T06:22:11.481Z,996.66
2024-04-19T06:22:41.936Z,996.67
2024-04-19T06:23:11.438Z,996.63
2024-04-19T06:23:41.432Z,996.61
2024-04-19T06:24:11.437Z,996.57
2024-04-19T06:24:41.439Z,996.62
2024-04-19T06:25:11.426Z,996.62
2024-04-19T06:25:41.410Z,996.58
2024-04-19T06:26:11.404Z,996.54
2024-04-19T06:26:41.444Z,996.57
2024-04-19T06:27:11.395Z,996.55
2024-04-19T06:27:41.414Z,996.58
2024-04-19T06:28:11.420Z,996.55
2024-04-19T06:28:41.446Z,996.59
2024-04-19T06:29:11.383Z,996.50
2024-04-19T06:29:41.371Z,996.48
2024-04-19T06:30:11.414Z,996.48
2024-04-19T06:30:41.403Z,996.44
2024-04-19T06:31:11.418Z,996.45
2024-04-19T06:31:41.408Z,996.48
2024-04-19T06:32:11.381Z,996.47
2024-04-19T06:32:41.385Z,996.43
2024-04-19T06:33:11.335Z,996.44
2024-04-19T06:33:41.406Z,996.46
2024-04-19T06:34:11.362Z,996.41
2024-04-19T06:34:41.377Z,996.34
2024-04-19T06:35:11.333Z,996.40
2024-04-19T06:35:41.305Z,996.41
2024-04-19T06:36:11.311Z,996.36
2024-04-19T06:36:41.335Z,996.35
2024-04-19T06:37:11.345Z,996.39
2024-04-19T06:37:41.306Z,996.34
2024-04-19T06:38:11.279Z,996.38
2024-04-19T06:38:43.129Z,996.35
2024-04-19T06:39:11.266Z,996.36
2024-04-19T06:39:47.118Z,996.38
2024-04-19T06:40:11.344Z,996.33
2024-04-19T06:40:41.301Z,996.35
2024-04-19T06:41:11.257Z,996.33
2024-04-19T06:41:41.239Z,996.36
2024-04-19T06:42:11.285Z,996.32
2024-04-19T06:42:41.247Z,996.36
2024-04-19T06:43:11.222Z,996.34
2024-04-19T06:43:41.220Z,996.29
2024-04-19T06:44:11.230Z,996.29
2024-04-19T06:44:41.207Z,996.23
2024-04-19T06:45:11.202Z,996.26
2024-04-19T06:45:41.228Z,996.23
2024-04-19T06:46:11.222Z,996.25
2024-04-19T06:46:41.227Z,996.25
2024-04-19T06:47:11.220Z,996.24
2024-04-19T06:47:41.265Z,996.25
2024-04-19T06:48:11.202Z,996.23
2024-04-19T06:48:41.236Z,996.23
2024-04-19T06:49:11.224Z,996.16
2024-04-19T06:49:41.159Z,996.16
2024-04-19T06:50:11.157Z,996.20
2024-04-19T06:50:41.153Z,996.20
2024-04-19T06:51:11.135Z,996.16
2024-04-19T06:51:43.964Z,996.16
2024-04-19T06:52:11.216Z,996.15
2024-04-19T06:52:41.163Z,996.19
2024-04-19T06:53:11.119Z,996.14
2024-04-19T06:53:41.115Z,996.15
2024-04-19T06:54:11.129Z,996.13
2024-04-19T06:54:41.152Z,996.14
2024-04-19T06:55:11.119Z,996.30
2024-04-19T06:55:41.088Z,996.17
2024-04-19T06:56:11.089Z,996.11
2024-04-19T06:56:41.078Z,996.10
2024-04-19T06:57:11.085Z,996.13
2024-04-19T06:57:41.219Z,996.12
2024-04-19T06:58:11.087Z,996.12
2024-04-19T06:58:41.098Z,996.16
2024-04-19T06:59:11.053Z,996.12
2024-04-19T06:59:41.074Z,996.12
2024-04-19T07:00:21.972Z,996.08
2024-04-19T07:00:53.857Z,996.07
2024-04-19T07:01:16.320Z,996.23
2024-04-19T07:01:41.054Z,996.10
2024-04-19T07:02:11.152Z,996.03
2024-04-19T07:02:41.131Z,996.03
2024-04-19T07:03:11.091Z,996.00
2024-04-19T07:03:41.637Z,996.02
2024-04-19T07:04:11.182Z,995.98
2024-04-19T07:04:41.230Z,996.02
2024-04-19T07:05:11.038Z,996.05
2024-04-19T07:05:41.000Z,996.00
2024-04-19T07:06:12.620Z,996.04
2024-04-19T07:06:42.887Z,996.01
2024-04-19T07:07:11.050Z,995.99
2024-04-19T07:07:40.985Z,996.05
2024-04-19T07:08:11.156Z,996.05
2024-04-19T07:08:40.956Z,996.08
2024-04-19T07:09:10.947Z,996.08
2024-04-19T07:09:40.960Z,996.07
2024-04-19T07:10:11.046Z,996.03
2024-04-19T07:10:40.988Z,996.05
2024-04-19T07:11:10.948Z,996.03
2024-04-19T07:11:40.941Z,996.04
2024-04-19T07:12:10.967Z,996.06
2024-04-19T07:12:40.981Z,996.00
2024-04-19T07:13:10.905Z,996.02
2024-04-19T07:13:40.946Z,996.00
2024-04-19T07:14:10.913Z,995.95
2024-04-19T07:14:40.928Z,995.98
2024-04-19T07:15:10.925Z,995.98
2024-04-19T07:15:40.881Z,996.00
2024-04-19T07:16:10.895Z,995.99
2024-04-19T07:16:40.926Z,995.97
2024-04-19T07:17:11.007Z,996.02
2024-04-19T07:17:40.874Z,996.01
2024-04-19T07:18:10.846Z,996.02
2024-04-19T07:18:40.918Z,996.01
2024-04-19T07:19:10.901Z,996.05
2024-04-19T07:19:40.830Z,996.02
2024-04-19T07:20:10.861Z,996.00
2024-04-19T07:20:40.821Z,995.96
2024-04-19T07:21:10.813Z,995.96
2024-04-19T07:21:40.904Z,995.94
2024-04-19T07:22:10.823Z,995.95
2024-04-19T07:22:40.845Z,995.93
2024-04-19T07:23:10.809Z,995.97
2024-04-19T07:23:41.061Z,995.94
2024-04-19T07:24:10.829Z,995.94
2024-04-19T07:24:40.811Z,995.92
2024-04-19T07:25:10.775Z,995.92
2024-04-19T07:25:40.822Z,995.88
2024-04-19T07:26:10.934Z,995.92
2024-04-19T07:26:40.752Z,995.92
2024-04-19T07:27:10.776Z,995.84
2024-04-19T07:27:45.380Z,995.86
2024-04-19T07:28:10.774Z,995.89
2024-04-19T07:28:40.784Z,995.80
2024-04-19T07:29:10.772Z,995.81
2024-04-19T07:29:40.739Z,995.77
2024-04-19T07:30:10.727Z,995.82
2024-04-19T07:30:40.730Z,995.86
2024-04-19T07:31:10.717Z,995.83
2024-04-19T07:31:40.693Z,995.82
2024-04-19T07:32:10.725Z,996.06
2024-04-19T07:32:40.731Z,996.20
2024-04-19T07:33:10.732Z,996.17
2024-04-19T07:33:40.703Z,996.09
2024-04-19T07:34:10.742Z,995.96
2024-04-19T07:34:40.710Z,996.02
2024-04-19T07:35:10.690Z,995.99
2024-04-19T07:35:40.668Z,995.98
2024-04-19T07:36:10.693Z,995.98
2024-04-19T07:36:40.680Z,995.92
2024-04-19T07:37:10.649Z,995.94
2024-04-19T07:37:40.640Z,996.02
2024-04-19T07:39:26.996Z,996.01
2024-04-19T07:39:58.795Z,996.00
2024-04-19T07:40:27.876Z,996.01
2024-04-19T07:40:57.880Z,995.98
2024-04-19T07:41:27.863Z,995.99
2024-04-19T07:41:57.859Z,995.99
2024-04-19T07:42:27.898Z,996.00
2024-04-19T07:42:57.914Z,996.01
2024-04-19T07:43:27.844Z,995.99
2024-04-19T07:44:01.335Z,995.98
2024-04-19T07:44:27.991Z,995.97
2024-04-19T07:44:57.866Z,995.94
2024-04-19T07:45:27.929Z,995.96
2024-04-19T07:45:57.882Z,995.95
2024-04-19T07:46:27.813Z,995.90
2024-04-19T07:46:59.878Z,995.92
2024-04-19T07:47:27.806Z,995.94
2024-04-19T07:47:57.854Z,995.96
2024-04-19T07:48:27.996Z,995.96
2024-04-19T07:48:57.949Z,995.94
2024-04-19T07:49:27.875Z,995.96
2024-04-19T07:49:57.795Z,995.96
2024-04-19T07:50:27.804Z,995.88
2024-04-19T07:50:57.846Z,995.93
2024-04-19T07:51:27.846Z,995.94
2024-04-19T07:51:57.810Z,995.94
2024-04-19T07:52:27.811Z,995.95
2024-04-19T07:52:57.735Z,995.96
2024-04-19T07:53:27.749Z,995.99
2024-04-19T07:53:57.718Z,995.94
2024-04-19T07:54:27.755Z,995.91
2024-04-19T07:54:57.749Z,995.91
2024-04-19T07:55:27.716Z,995.93
2024-04-19T07:55:57.744Z,995.92
2024-04-19T07:56:27.730Z,995.91
2024-04-19T07:56:57.741Z,995.92
2024-04-19T07:57:27.718Z,995.93
2024-04-19T07:57:57.716Z,995.91
2024-04-19T07:58:27.675Z,995.90
2024-04-19T07:58:57.667Z,995.92
2024-04-19T07:59:27.674Z,995.92
2024-04-19T07:59:57.693Z,995.90
2024-04-19T08:00:27.703Z,995.91
2024-04-19T08:00:57.734Z,995.86
2024-04-19T08:01:27.763Z,995.85
2024-04-19T08:01:57.649Z,995.85
2024-04-19T08:02:27.744Z,995.85
2024-04-19T08:04:14.862Z,995.84
2024-04-19T08:04:44.949Z,995.85
2024-04-19T08:05:14.925Z,995.85
2024-04-19T08:05:45.456Z,995.83
2024-04-19T08:06:15.223Z,995.82
2024-04-19T08:06:44.996Z,995.82
2024-04-19T08:07:23.984Z,995.81
2024-04-19T08:07:44.956Z,995.81
2024-04-19T08:08:14.982Z,995.80
2024-04-19T08:08:45.037Z,995.80
2024-04-19T08:09:15.146Z,995.78
2024-04-19T08:09:45.021Z,995.77
2024-04-19T08:10:14.902Z,995.76
2024-04-19T08:10:44.998Z,995.78
2024-04-19T08:11:14.958Z,995.79
2024-04-19T08:11:44.973Z,995.74
2024-04-19T08:12:14.827Z,995.74
2024-04-19T08:12:44.847Z,995.77
2024-04-19T08:13:14.859Z,995.72
2024-04-19T08:13:44.824Z,995.73
2024-04-19T08:14:14.821Z,995.72
2024-04-19T08:14:44.802Z,995.68
2024-04-19T08:15:14.856Z,995.65
2024-04-19T08:15:44.916Z,995.68
2024-04-19T08:16:14.879Z,995.68
2024-04-19T08:16:44.899Z,995.65
2024-04-19T08:17:14.818Z,995.66
2024-04-19T08:17:44.865Z,995.63
2024-04-19T08:18:14.765Z,995.65
2024-04-19T08:18:44.811Z,995.62
2024-04-19T08:19:14.761Z,995.63
2024-04-19T08:19:44.759Z,995.62
2024-04-19T08:20:14.758Z,995.60
2024-04-19T08:20:44.738Z,995.64
2024-04-19T08:21:14.803Z,995.65
2024-04-19T08:21:44.798Z,995.65
2024-04-19T08:22:14.718Z,995.60
2024-04-19T08:22:44.721Z,995.63
2024-04-19T08:23:14.985Z,995.59
2024-04-19T08:23:44.704Z,995.64
2024-04-19T08:24:14.707Z,995.62
2024-04-19T08:24:44.778Z,995.62
2024-04-19T08:25:14.707Z,995.62
2024-04-19T08:25:44.711Z,995.54
2024-04-19T08:26:14.738Z,995.60
2024-04-19T08:26:44.684Z,995.59
2024-04-19T08:27:14.751Z,995.61
2024-04-19T08:27:44.772Z,995.56
2024-04-19T08:29:35.528Z,995.53
2024-04-19T08:31:18.735Z,995.53
2024-04-19T08:31:50.717Z,995.54
2024-04-19T08:33:36.506Z,995.53
2024-04-19T08:34:07.439Z,995.53
2024-04-19T08:34:36.890Z,995.54
2024-04-19T08:35:07.388Z,995.58
2024-04-19T08:35:36.881Z,995.57
2024-04-19T08:36:06.893Z,995.47
2024-04-19T08:36:36.969Z,995.55
2024-04-19T08:37:06.862Z,995.49
2024-04-19T08:37:36.883Z,995.53
2024-04-19T08:38:06.862Z,995.49
2024-04-19T08:38:36.971Z,995.47
2024-04-19T08:39:06.908Z,995.45
2024-04-19T08:39:36.876Z,995.45
2024-04-19T08:40:06.926Z,995.44
2024-04-19T08:40:38.381Z,995.44
2024-04-19T08:41:06.835Z,995.46
2024-04-19T08:41:36.870Z,995.47
2024-04-19T08:42:06.843Z,995.45
2024-04-19T08:42:36.827Z,995.41
2024-04-19T08:43:06.835Z,995.46
2024-04-19T08:43:36.814Z,995.45
2024-04-19T08:44:06.787Z,995.47
2024-04-19T08:44:36.810Z,995.40
2024-04-19T08:45:06.817Z,995.43
2024-04-19T08:45:36.780Z,995.40
2024-04-19T08:46:06.876Z,995.40
2024-04-19T08:46:36.789Z,995.37
2024-04-19T08:47:06.811Z,995.39
2024-04-19T08:47:36.917Z,995.36
2024-04-19T08:48:06.842Z,995.38
2024-04-19T08:48:37.036Z,995.36
2024-04-19T08:49:06.799Z,995.38
2024-04-19T08:49:36.751Z,995.37
2024-04-19T08:50:06.772Z,995.32
2024-04-19T08:50:36.757Z,995.32
2024-04-19T08:51:06.754Z,995.33
2024-04-19T08:51:50.485Z,995.27
2024-04-19T08:52:21.478Z,995.26
2024-04-19T08:53:08.748Z,995.28
2024-04-19T08:53:20.128Z,995.24
2024-04-19T08:53:36.742Z,995.27
2024-04-19T08:54:06.704Z,995.26
2024-04-19T08:54:36.751Z,995.26
2024-04-19T08:55:06.798Z,995.23
2024-04-19T08:55:36.682Z,995.25
2024-04-19T08:56:06.667Z,995.23
2024-04-19T08:56:36.683Z,995.21
2024-04-19T08:57:06.704Z,995.21
2024-04-19T08:57:36.720Z,995.20
2024-04-19T08:58:06.638Z,995.18
2024-04-19T08:58:36.634Z,995.16
2024-04-19T08:59:06.693Z,995.13
2024-04-19T08:59:36.626Z,995.13
2024-04-19T09:00:13.256Z,995.12
2024-04-19T09:00:36.727Z,995.13
2024-04-19T09:01:06.649Z,995.15
2024-04-19T09:01:36.644Z,995.10
2024-04-19T09:02:06.595Z,995.12
2024-04-19T09:02:36.648Z,995.08
2024-04-19T09:03:07.361Z,995.09
2024-04-19T09:03:36.641Z,995.13
2024-04-19T09:04:06.737Z,995.14
2024-04-19T09:04:36.739Z,995.13
2024-04-19T09:05:06.574Z,995.09
2024-04-19T09:05:36.553Z,995.15
2024-04-19T09:06:06.574Z,995.18
2024-04-19T09:06:36.630Z,995.15
2024-04-19T09:07:06.587Z,995.14
2024-04-19T09:07:36.669Z,995.16
2024-04-19T09:08:06.677Z,995.16
2024-04-19T09:08:36.541Z,995.17
2024-04-19T09:09:06.615Z,995.13
2024-04-19T09:09:36.536Z,995.16
2024-04-19T09:10:07.024Z,995.11
2024-04-19T09:10:36.534Z,995.19
2024-04-19T09:11:06.510Z,995.19
2024-04-19T09:11:36.548Z,995.25
2024-04-19T09:12:06.495Z,995.13
2024-04-19T09:12:36.540Z,995.20
2024-04-19T09:13:06.544Z,995.16
2024-04-19T09:13:36.612Z,995.16
2024-04-19T09:14:06.477Z,995.14
2024-04-19T09:14:36.511Z,995.11
2024-04-19T09:15:06.496Z,995.12
2024-04-19T09:15:36.499Z,995.13
2024-04-19T09:16:06.491Z,995.10
2024-04-19T09:16:36.451Z,995.09
2024-04-19T09:17:06.512Z,995.11
2024-04-19T09:17:36.561Z,995.06
2024-04-19T09:18:06.458Z,995.08
2024-04-19T09:18:36.497Z,995.08
2024-04-19T09:19:06.463Z,995.06
2024-04-19T09:19:36.419Z,994.96
2024-04-19T09:20:06.461Z,995.09
2024-04-19T09:20:36.423Z,995.03
2024-04-19T09:21:06.446Z,995.03
2024-04-19T09:21:36.428Z,995.04
2024-04-19T09:22:06.380Z,995.04
2024-04-19T09:22:36.393Z,995.04
2024-04-19T09:23:06.388Z,995.03
2024-04-19T09:23:36.361Z,995.07
2024-04-19T09:24:06.355Z,995.04
2024-04-19T09:24:36.401Z,995.03
2024-04-19T09:25:06.406Z,995.03
2024-04-19T09:25:36.341Z,995.02
2024-04-19T09:26:06.333Z,995.02
2024-04-19T09:26:36.345Z,995.03
2024-04-19T09:27:14.351Z,994.99
2024-04-19T09:27:36.421Z,995.01
2024-04-19T09:28:06.316Z,994.97
2024-04-19T09:28:36.307Z,994.95
2024-04-19T09:29:06.313Z,994.93
2024-04-19T09:29:36.312Z,994.94
2024-04-19T09:30:06.302Z,994.93
2024-04-19T09:30:36.369Z,994.93
2024-04-19T09:31:06.289Z,994.93
2024-04-19T09:31:36.290Z,994.91
2024-04-19T09:32:06.277Z,994.92
2024-04-19T09:32:36.351Z,994.90
2024-04-19T09:33:06.416Z,994.92
2024-04-19T09:33:36.366Z,994.90
2024-04-19T09:34:06.395Z,994.84
2024-04-19T09:34:36.270Z,994.86
2024-04-19T09:35:06.250Z,994.85
2024-04-19T09:35:36.309Z,994.87
2024-04-19T09:36:06.250Z,994.78
2024-04-19T09:36:36.268Z,994.82
2024-04-19T09:37:06.240Z,994.87
2024-04-19T09:37:36.215Z,994.86
2024-04-19T09:38:06.215Z,994.84
2024-04-19T09:38:36.223Z,994.86
2024-04-19T09:39:06.248Z,994.83
2024-04-19T09:39:36.215Z,994.80
2024-04-19T09:40:06.202Z,994.88
2024-04-19T09:40:36.229Z,994.82
2024-04-19T09:41:06.183Z,994.84
2024-04-19T09:41:36.198Z,994.81
2024-04-19T09:42:06.177Z,994.81
2024-04-19T09:42:36.230Z,994.80
2024-04-19T09:43:06.269Z,994.81
2024-04-19T09:43:36.187Z,994.80
2024-04-19T09:44:06.147Z,994.75
2024-04-19T09:44:36.199Z,994.77
2024-04-19T09:45:06.198Z,994.76
2024-04-19T09:45:36.194Z,994.78
2024-04-19T09:46:06.136Z,994.75
2024-04-19T09:46:36.156Z,994.73
2024-04-19T09:47:06.190Z,994.75
2024-04-19T09:47:36.123Z,994.75
2024-04-19T09:48:06.103Z,994.74
2024-04-19T09:48:36.733Z,994.73
2024-04-19T09:49:06.123Z,994.72
2024-04-19T09:49:36.107Z,994.70
2024-04-19T09:50:06.091Z,994.71
2024-04-19T09:50:36.169Z,994.72
2024-04-19T09:51:06.132Z,994.68
2024-04-19T09:51:36.122Z,994.65
2024-04-19T09:52:06.065Z,994.66
2024-04-19T09:52:36.056Z,994.65
2024-04-19T09:53:06.050Z,994.64
2024-04-19T09:53:36.034Z,994.67
2024-04-19T09:54:06.091Z,994.64
2024-04-19T09:54:36.065Z,994.60
2024-04-19T09:55:06.031Z,994.60
2024-04-19T09:55:36.075Z,994.61
2024-04-19T09:56:06.039Z,994.60
2024-04-19T09:56:36.049Z,994.56
2024-04-19T09:57:06.069Z,994.54
2024-04-19T09:57:36.006Z,994.52
2024-04-19T09:58:05.998Z,994.50
2024-04-19T09:58:36.042Z,994.49
2024-04-19T09:59:05.977Z,994.50
2024-04-19T09:59:36.139Z,994.50
2024-04-19T10:00:05.997Z,994.46
2024-04-19T10:00:36.066Z,994.48
2024-04-19T10:01:06.129Z,994.51
2024-04-19T10:01:36.055Z,994.49
2024-04-19T10:02:11.481Z,994.47
2024-04-19T10:02:37.377Z,994.47
2024-04-19T10:03:06.059Z,994.51
2024-04-19T10:03:35.997Z,994.47
2024-04-19T10:04:06.034Z,994.44
2024-04-19T10:04:36.400Z,994.42
2024-04-19T10:05:06.305Z,994.44
2024-04-19T10:05:35.907Z,994.43
2024-04-19T10:06:06.900Z,994.40
2024-04-19T10:06:36.312Z,994.47
2024-04-19T10:07:06.193Z,994.44
2024-04-19T10:07:35.895Z,994.45
2024-04-19T10:08:05.890Z,994.44
2024-04-19T10:08:36.135Z,994.44
2024-04-19T10:09:05.945Z,994.42
2024-04-19T10:09:35.883Z,994.46
2024-04-19T10:10:05.870Z,994.45
2024-04-19T10:10:35.854Z,994.43
2024-04-19T10:11:06.101Z,994.43
2024-04-19T10:11:35.887Z,994.42
2024-04-19T10:12:05.892Z,994.39
2024-04-19T10:12:35.936Z,994.37
2024-04-19T10:13:05.877Z,994.38
2024-04-19T10:13:35.824Z,994.37
2024-04-19T10:14:05.827Z,994.37
2024-04-19T10:14:35.857Z,994.36
2024-04-19T10:15:05.878Z,994.39
2024-04-19T10:15:35.814Z,994.40
2024-04-19T10:16:05.836Z,994.33
2024-04-19T10:16:35.795Z,994.36
2024-04-19T10:17:05.837Z,994.36
2024-04-19T10:17:35.854Z,994.39
2024-04-19T10:18:07.389Z,994.42
2024-04-19T10:18:36.000Z,994.42
2024-04-19T10:19:05.828Z,994.42
2024-04-19T10:19:45.128Z,994.44
2024-04-19T10:20:05.771Z,994.45
2024-04-19T10:20:35.765Z,994.43
2024-04-19T10:21:05.813Z,994.45
2024-04-19T10:21:35.737Z,994.43
2024-04-19T10:22:05.778Z,994.43
2024-04-19T10:22:35.721Z,994.42
2024-04-19T10:23:05.776Z,994.43
2024-04-19T10:23:35.713Z,994.40
2024-04-19T10:24:05.724Z,994.38
2024-04-19T10:24:35.709Z,994.36
2024-04-19T10:25:05.712Z,994.38
2024-04-19T10:25:35.706Z,994.42
2024-04-19T10:26:05.725Z,994.39
2024-04-19T10:26:35.699Z,994.40
2024-04-19T10:27:06.029Z,994.39
2024-04-19T10:27:35.843Z,994.40
2024-04-19T10:28:05.738Z,994.40
2024-04-19T10:28:35.688Z,994.37
2024-04-19T10:29:05.657Z,994.36
2024-04-19T10:29:35.657Z,994.34
2024-04-19T10:30:06.201Z,994.34
2024-04-19T10:30:37.072Z,994.33
2024-04-19T10:31:07.141Z,994.30
2024-04-19T10:31:35.664Z,994.31
2024-04-19T10:32:05.741Z,994.30
2024-04-19T10:32:35.647Z,994.26
2024-04-19T10:33:05.740Z,994.26
2024-04-19T10:33:35.688Z,994.27
2024-04-19T10:34:05.606Z,994.27
2024-04-19T10:34:35.619Z,994.26
2024-04-19T10:35:05.589Z,994.23
2024-04-19T10:35:35.592Z,994.25
2024-04-19T10:36:06.849Z,994.26
2024-04-19T10:36:35.600Z,994.23
2024-04-19T10:37:05.578Z,994.20
2024-04-19T10:37:35.566Z,994.20
2024-04-19T10:38:05.622Z,994.17
2024-04-19T10:38:35.573Z,994.17
2024-04-19T10:39:05.625Z,994.17
2024-04-19T10:39:35.593Z,994.17
2024-04-19T10:40:05.538Z,994.19
2024-04-19T10:40:35.539Z,994.15
2024-04-19T10:41:05.545Z,994.15
2024-04-19T10:41:35.527Z,994.13
2024-04-19T10:42:05.527Z,994.13
2024-04-19T10:42:35.542Z,994.12
2024-04-19T10:43:05.531Z,994.11
2024-04-19T10:43:35.565Z,994.13
2024-04-19T10:44:05.488Z,994.08
2024-04-19T10:44:35.527Z,994.06
2024-04-19T10:45:05.558Z,994.08
2024-04-19T10:45:35.526Z,994.05
2024-04-19T10:46:05.509Z,994.05
2024-04-19T10:46:35.466Z,994.04
2024-04-19T10:47:05.479Z,994.06
2024-04-19T10:47:35.530Z,994.03
2024-04-19T10:48:05.574Z,994.01
2024-04-19T10:48:35.567Z,994.03
2024-04-19T10:49:05.475Z,994.03
2024-04-19T10:49:35.436Z,994.04
2024-04-19T10:50:05.430Z,994.03
2024-04-19T10:50:35.434Z,994.01
2024-04-19T10:51:05.511Z,994.01
2024-04-19T10:51:35.441Z,993.98
2024-04-19T10:52:05.404Z,993.98
2024-04-19T10:52:35.405Z,993.97
2024-04-19T10:53:05.396Z,993.95
2024-04-19T10:53:35.448Z,993.95
2024-04-19T10:54:05.382Z,993.91
2024-04-19T10:54:35.398Z,993.89
2024-04-19T10:55:05.430Z,993.89
2024-04-19T10:55:35.425Z,993.89
2024-04-19T10:56:05.369Z,993.90
2024-04-19T10:56:35.386Z,993.90
2024-04-19T10:57:05.413Z,993.85
2024-04-19T10:57:35.406Z,993.82
2024-04-19T10:58:05.365Z,993.78
2024-04-19T10:58:35.388Z,993.80
2024-04-19T10:59:05.333Z,993.78
2024-04-19T10:59:35.334Z,993.75
2024-04-19T11:00:05.332Z,993.75
2024-04-19T11:00:35.453Z,993.75
2024-04-19T11:01:05.520Z,993.71
2024-04-19T11:01:35.454Z,993.67
2024-04-19T11:02:05.399Z,993.66
2024-04-19T11:02:35.346Z,993.66
2024-04-19T11:03:14.336Z,993.70
2024-04-19T11:03:35.406Z,993.64
2024-04-19T11:04:05.412Z,993.64
2024-04-19T11:04:35.362Z,993.61
2024-04-19T11:05:05.252Z,993.64
2024-04-19T11:05:35.319Z,993.67
2024-04-19T11:06:05.261Z,993.66
2024-04-19T11:06:35.317Z,993.64
2024-04-19T11:07:05.250Z,993.64
2024-04-19T11:07:35.280Z,993.63
2024-04-19T11:08:05.244Z,993.60
2024-04-19T11:08:35.298Z,993.61
2024-04-19T11:09:05.372Z,993.60
2024-04-19T11:09:35.289Z,993.58
2024-04-19T11:10:05.253Z,993.58
2024-04-19T11:10:35.334Z,993.58
2024-04-19T11:11:05.281Z,993.58
2024-04-19T11:11:35.256Z,993.56
2024-04-19T11:12:05.204Z,993.59
2024-04-19T11:12:35.198Z,993.61
2024-04-19T11:13:05.294Z,993.59
2024-04-19T11:13:35.201Z,993.58
2024-04-19T11:14:05.214Z,993.57
2024-04-19T11:14:35.192Z,993.57
2024-04-19T11:15:05.229Z,993.55
2024-04-19T11:15:43.730Z,993.55
2024-04-19T11:16:05.178Z,993.51
2024-04-19T11:16:35.188Z,993.50
2024-04-19T11:17:05.140Z,993.49
2024-04-19T11:17:35.218Z,993.47
2024-04-19T11:18:05.216Z,993.44
2024-04-19T11:18:35.204Z,993.40
2024-04-19T11:19:05.335Z,993.41
2024-04-19T11:19:35.265Z,993.37
2024-04-19T11:20:05.107Z,993.37
2024-04-19T11:20:35.107Z,993.35
2024-04-19T11:21:08.831Z,993.34
2024-04-19T11:21:35.213Z,993.34
2024-04-19T11:22:05.074Z,993.30
2024-04-19T11:22:35.079Z,993.29
2024-04-19T11:23:05.066Z,993.26
2024-04-19T11:23:35.108Z,993.28
2024-04-19T11:24:05.064Z,993.24
2024-04-19T11:24:35.126Z,993.27
2024-04-19T11:25:05.066Z,993.25
2024-04-19T11:25:35.030Z,993.26
2024-04-19T11:26:05.033Z,993.17
2024-04-19T11:26:35.056Z,993.21
2024-04-19T11:27:05.063Z,993.20
2024-04-19T11:27:35.058Z,993.22
2024-04-19T11:28:05.018Z,993.21
2024-04-19T11:28:35.026Z,993.22
2024-04-19T11:29:04.998Z,993.19
2024-04-19T11:29:35.049Z,993.18
2024-04-19T11:30:05.000Z,993.18
2024-04-19T11:30:35.027Z,993.17
2024-04-19T11:31:04.985Z,993.15
2024-04-19T11:31:35.004Z,993.12
2024-04-19T11:32:05.011Z,993.09
2024-04-19T11:32:35.012Z,993.13
2024-04-19T11:33:05.012Z,993.11
2024-04-19T11:33:34.993Z,993.09
2024-04-19T11:34:05.027Z,993.10
2024-04-19T11:34:34.997Z,993.09
2024-04-19T11:35:04.944Z,993.08
2024-04-19T11:35:34.933Z,993.06
2024-04-19T11:36:04.921Z,993.07
2024-04-19T11:36:34.977Z,993.05
2024-04-19T11:37:05.056Z,993.03
2024-04-19T11:37:34.908Z,993.02
2024-04-19T11:38:04.899Z,993.02
2024-04-19T11:38:34.918Z,993.01
2024-04-19T11:39:05.105Z,992.99
2024-04-19T11:39:34.936Z,992.98
2024-04-19T11:40:04.960Z,992.97
2024-04-19T11:40:34.878Z,993.00
2024-04-19T11:41:05.122Z,992.93
2024-04-19T11:41:34.871Z,992.93
2024-04-19T11:42:04.868Z,992.95
2024-04-19T11:42:34.865Z,992.90
2024-04-19T11:43:04.848Z,992.89
2024-04-19T11:43:34.867Z,992.88
2024-04-19T11:44:04.842Z,992.87
2024-04-19T11:44:34.865Z,992.88
2024-04-19T11:45:04.877Z,992.82
2024-04-19T11:45:34.879Z,992.79
2024-04-19T11:46:04.939Z,992.80
2024-04-19T11:46:34.843Z,992.78
2024-04-19T11:47:04.810Z,992.79
2024-04-19T11:47:34.889Z,992.83
2024-04-19T11:48:04.917Z,992.78
2024-04-19T11:48:34.849Z,992.77
2024-04-19T11:49:04.844Z,992.80
2024-04-19T11:49:34.781Z,992.79
2024-04-19T11:50:04.781Z,992.80
2024-04-19T11:50:34.801Z,992.80
2024-04-19T11:51:04.854Z,992.81
2024-04-19T11:51:34.875Z,992.82
2024-04-19T11:52:04.839Z,992.85
2024-04-19T11:52:34.757Z,992.88
2024-04-19T11:53:04.744Z,992.89
2024-04-19T11:53:34.745Z,992.97
2024-04-19T11:54:04.741Z,992.98
2024-04-19T11:54:34.747Z,993.01
2024-04-19T11:55:04.728Z,993.09
2024-04-19T11:55:34.768Z,993.12
2024-04-19T11:56:04.791Z,993.11
2024-04-19T11:56:34.727Z,993.14
2024-04-19T11:57:04.740Z,993.12
2024-04-19T11:57:34.708Z,993.10
2024-04-19T11:58:04.732Z,993.08
2024-04-19T11:58:34.701Z,993.05
2024-04-19T11:59:04.677Z,993.07
2024-04-19T11:59:34.674Z,993.07
2024-04-19T12:00:04.664Z,993.06
2024-04-19T12:00:34.783Z,993.06
2024-04-19T12:01:04.914Z,993.05
2024-04-19T12:01:34.697Z,993.07
2024-04-19T12:02:04.640Z,993.07
2024-04-19T12:02:34.669Z,993.08
2024-04-19T12:03:04.734Z,993.07
2024-04-19T12:03:34.870Z,993.07
2024-04-19T12:04:04.812Z,993.04
2024-04-19T12:04:34.733Z,993.05
2024-04-19T12:05:04.733Z,993.04
2024-04-19T12:05:34.653Z,993.04
2024-04-19T12:06:04.791Z,993.02
2024-04-19T12:06:34.601Z,993.04
2024-04-19T12:07:04.646Z,993.04
2024-04-19T12:07:34.595Z,993.04
2024-04-19T12:08:04.587Z,993.05
2024-04-19T12:08:34.616Z,993.04
2024-04-19T12:09:04.611Z,993.04
2024-04-19T12:09:34.577Z,993.04
2024-04-19T12:10:04.636Z,993.04
2024-04-19T12:10:34.578Z,993.04
2024-04-19T12:11:04.773Z,993.04
2024-04-19T12:11:34.599Z,993.05
2024-04-19T12:12:37.783Z,993.06
2024-04-19T12:14:07.833Z,993.06
2024-04-19T12:15:44.820Z,993.07
2024-04-19T12:16:39.490Z,993.04
2024-04-19T12:16:56.826Z,993.05
2024-04-19T12:17:15.520Z,993.04